Terminal Aerodrome Forecast
Issued by NWS Blacksburg, VA

Current Version | Previous Version | Text Only | Print | Product List | Glossary Off
Versions: 1 2 3 4 5 6 7 8 9 10 11 12 13 14 15 16 17 18 19 20 21 22 23 24 25 26 27 28 29 30 31 32 33 34 35 36 37 38

939
FTUS41 KRNK 271901 AAA
TAFBLF
TAF AMD
KBLF 271901Z 2719/2818 27006KT 6SM -SHRA VCTS SCT040CB OVC090
      TEMPO 2719/2720 3SM -SHRA BR BKN008
     FM272100 27007KT P6SM BKN090
     FM280100 26006KT P6SM VCSH BKN080
     FM281000 23004KT 6SM SHRA OVC050=

USA.gov is the U.S. government's official web portal to all federal, state and local government web resources and services.